Time;durP1;ratioP1;P1;durP2;ratioP2;P2;SDS_P1;SDS_P2;PMS_P1;PMS_P2;Temp;Humidity;BMP_temperature;BMP_pressure;BME280_temperature;BME280_humidity;BME280_pressure;Samples;Min_cycle;Max_cycle;Signal;HPM_P1;HPM_P2
2023/09/26 00:01:31;;;;;;;8.57;7.33;;;;;;;11.63;88.50;101865.72;4981235;28;20198;-69
2023/09/26 00:03:57;;;;;;;10.77;8.50;;;;;;;11.61;88.71;101865.25;4979626;28;20747;-68
2023/09/26 00:06:27;;;;;;;11.17;7.80;;;;;;;11.59;88.82;101859.47;4963489;28;20208;-69
2023/09/26 00:08:54;;;;;;;9.50;8.40;;;;;;;11.58;89.14;101863.19;4976785;28;20717;-68
2023/09/26 00:11:21;;;;;;;9.77;8.00;;;;;;;11.57;88.82;101869.56;4986469;28;20202;-68
2023/09/26 00:13:48;;;;;;;9.23;7.33;;;;;;;11.54;88.29;101864.84;4978696;28;20232;-68
2023/09/26 00:16:15;;;;;;;8.60;7.67;;;;;;;11.52;89.58;101863.59;4985134;28;20210;-68
2023/09/26 00:18:42;;;;;;;9.77;8.30;;;;;;;11.50;89.32;101861.25;4984703;28;20220;-69
2023/09/26 00:21:10;;;;;;;10.63;8.03;;;;;;;11.48;89.11;101858.13;4987497;28;20684;-68
2023/09/26 00:23:37;;;;;;;8.63;7.73;;;;;;;11.46;88.76;101854.22;4985708;28;20216;-69
2023/09/26 00:26:07;;;;;;;10.20;7.27;;;;;;;11.44;89.03;101851.84;4986308;28;20221;-69
2023/09/26 00:28:33;;;;;;;8.97;7.97;;;;;;;11.42;88.52;101845.31;4983597;28;20228;-69
2023/09/26 00:31:03;;;;;;;8.47;7.37;;;;;;;11.41;89.60;101851.69;4997223;28;20587;-69
2023/09/26 00:33:30;;;;;;;9.27;8.30;;;;;;;11.40;89.33;101855.41;4960822;28;20319;-68
2023/09/26 00:35:56;;;;;;;10.17;8.33;;;;;;;11.37;89.91;101853.34;4968682;28;20636;-69
2023/09/26 00:38:23;;;;;;;9.93;8.53;;;;;;;11.34;89.96;101854.72;4970238;28;20448;-68
2023/09/26 00:40:50;;;;;;;9.17;7.40;;;;;;;11.34;89.70;101862.66;4960924;28;20216;-68
2023/09/26 00:43:21;;;;;;;10.20;7.97;;;;;;;11.32;89.45;101853.47;4984320;28;20204;-68
2023/09/26 00:45:52;;;;;;;11.67;8.67;;;;;;;11.31;90.06;101847.41;4964455;28;20229;-68
2023/09/26 00:48:18;;;;;;;11.43;8.30;;;;;;;11.31;89.77;101847.41;4981709;28;20222;-69
2023/09/26 00:50:46;;;;;;;9.17;8.07;;;;;;;11.29;90.30;101857.50;4971832;28;20201;-69
2023/09/26 00:53:12;;;;;;;9.17;8.03;;;;;;;11.27;90.02;101856.22;4968495;28;20213;-68
2023/09/26 00:55:39;;;;;;;11.33;9.60;;;;;;;11.26;90.37;101852.03;4983298;28;20635;-69
2023/09/26 00:58:08;;;;;;;8.93;8.03;;;;;;;11.24;89.90;101852.31;4961328;28;25325;-68
2023/09/26 01:00:34;;;;;;;9.93;7.60;;;;;;;11.24;90.32;101848.91;4989297;28;20210;-69
2023/09/26 01:03:00;;;;;;;9.90;8.60;;;;;;;11.21;89.98;101852.94;4980939;28;20205;-69
2023/09/26 01:05:27;;;;;;;10.27;7.93;;;;;;;11.18;90.41;101848.22;4984790;28;20209;-68
2023/09/26 01:07:54;;;;;;;10.93;8.20;;;;;;;11.19;90.02;101846.38;4980018;28;20689;-68
2023/09/26 01:10:20;;;;;;;7.67;6.87;;;;;;;11.16;90.39;101837.19;4967056;28;20211;-69
2023/09/26 01:12:47;;;;;;;9.17;8.27;;;;;;;11.14;90.53;101834.03;4969214;28;20209;-67
2023/09/26 01:15:30;;;;;;;8.87;7.97;;;;;;;11.12;90.08;101836.22;4968716;28;20426;-68
2023/09/26 01:17:57;;;;;;;8.43;7.50;;;;;;;11.12;90.84;101846.78;4980524;28;20229;-69
2023/09/26 01:20:24;;;;;;;9.20;8.30;;;;;;;11.11;90.15;101842.56;4966772;28;20244;-68
2023/09/26 01:22:52;;;;;;;11.57;7.77;;;;;;;11.10;90.79;101848.16;4983218;28;20391;-68
2023/09/26 01:25:19;;;;;;;9.27;8.27;;;;;;;11.07;90.66;101846.88;4964438;28;20586;-68
2023/09/26 01:27:46;;;;;;;10.07;7.90;;;;;;;11.05;90.15;101845.63;4978250;28;20233;-68
2023/09/26 01:30:14;;;;;;;10.00;8.43;;;;;;;11.03;91.15;101850.44;4959531;28;20220;-68
2023/09/26 01:32:40;;;;;;;9.07;7.90;;;;;;;11.02;90.84;101848.88;4985549;28;20573;-69
2023/09/26 01:35:08;;;;;;;8.67;7.77;;;;;;;11.00;91.06;101851.81;4991114;28;20214;-68
2023/09/26 01:37:34;;;;;;;9.23;8.03;;;;;;;10.99;90.81;101852.91;4982179;28;20217;-69
2023/09/26 01:40:00;;;;;;;10.13;7.73;;;;;;;10.97;90.52;101849.75;4993963;28;20200;-69
2023/09/26 01:42:28;;;;;;;10.23;7.93;;;;;;;10.98;90.56;101855.81;4987210;28;20206;-69
2023/09/26 01:44:54;;;;;;;9.63;7.50;;;;;;;10.96;90.97;101852.69;4966644;28;20216;-69
2023/09/26 01:47:31;;;;;;;9.57;8.40;;;;;;;10.94;91.02;101862.78;4964087;28;20233;-69
2023/09/26 01:49:58;;;;;;;10.67;8.83;;;;;;;10.92;91.37;101862.31;4956757;28;20211;-69
2023/09/26 01:52:24;;;;;;;9.03;8.13;;;;;;;10.92;91.63;101857.03;4982591;28;20626;-69
2023/09/26 01:54:50;;;;;;;10.20;7.90;;;;;;;10.89;91.21;101855.75;4977123;28;20569;-68
2023/09/26 01:57:17;;;;;;;10.30;8.20;;;;;;;10.88;91.63;101858.69;4999428;28;20232;-68
2023/09/26 01:59:44;;;;;;;8.40;7.60;;;;;;;10.86;90.87;101851.03;4966639;28;20205;-68
2023/09/26 02:02:10;;;;;;;12.83;7.90;;;;;;;10.86;91.53;101853.69;4960610;28;20206;-68
2023/09/26 02:04:37;;;;;;;11.93;7.93;;;;;;;10.85;91.62;101853.97;4977098;28;20431;-68
2023/09/26 02:07:03;;;;;;;8.70;7.73;;;;;;;10.85;91.20;101862.69;4965616;28;20225;-68
2023/09/26 02:09:29;;;;;;;8.50;7.60;;;;;;;10.85;91.68;101856.63;4966840;28;20217;-68
2023/09/26 02:11:56;;;;;;;8.77;7.70;;;;;;;10.83;91.67;101851.66;4982539;28;20219;-69
2023/09/26 02:14:22;;;;;;;13.20;8.17;;;;;;;10.83;91.24;101850.84;4966017;28;20231;-69
2023/09/26 02:16:50;;;;;;;9.37;7.73;;;;;;;10.82;91.23;101846.66;4969403;28;20221;-68
2023/09/26 02:19:16;;;;;;;10.70;9.07;;;;;;;10.82;91.11;101846.66;4984749;28;20209;-69
2023/09/26 02:21:42;;;;;;;10.37;8.87;;;;;;;10.81;91.50;101851.16;4961528;28;20204;-71
2023/09/26 02:24:09;;;;;;;10.53;9.10;;;;;;;10.80;91.44;101846.16;4993148;28;20213;-70
2023/09/26 02:26:35;;;;;;;12.83;9.20;;;;;;;10.79;91.62;101844.59;4965606;28;20362;-70
2023/09/26 02:29:02;;;;;;;10.37;9.27;;;;;;;10.78;92.11;101840.41;4953781;28;20574;-68
2023/09/26 02:31:28;;;;;;;10.83;9.13;;;;;;;10.79;92.09;101834.03;4999640;28;20203;-68
2023/09/26 02:33:56;;;;;;;11.60;9.53;;;;;;;10.77;92.52;101841.47;4984493;28;20208;-69
2023/09/26 02:36:22;;;;;;;11.43;9.60;;;;;;;10.76;92.15;101842.56;4986743;28;20201;-69
2023/09/26 02:38:49;;;;;;;12.33;9.80;;;;;;;10.73;91.83;101837.84;4967005;28;20270;-69
2023/09/26 02:41:15;;;;;;;14.63;8.90;;;;;;;10.73;92.24;101835.22;4977192;28;20213;-68
2023/09/26 02:43:41;;;;;;;12.03;8.80;;;;;;;10.74;92.29;101842.06;4962487;28;20435;-69
2023/09/26 02:46:07;;;;;;;11.33;9.23;;;;;;;10.71;92.72;101840.78;4964071;28;20216;-68
2023/09/26 02:48:34;;;;;;;12.97;9.80;;;;;;;10.70;91.67;101835.78;4978038;28;20225;-68
2023/09/26 02:51:05;;;;;;;15.23;8.93;;;;;;;10.69;92.28;101831.59;4982721;28;20220;-68
2023/09/26 02:53:32;;;;;;;10.37;8.63;;;;;;;10.67;91.60;101839.03;4985263;28;20573;-69
2023/09/26 02:55:58;;;;;;;10.43;9.07;;;;;;;10.66;91.83;101840.13;4962738;28;20497;-69
2023/09/26 02:58:24;;;;;;;10.27;8.60;;;;;;;10.65;92.13;101847.25;4982759;28;20831;-69
2023/09/26 03:00:50;;;;;;;11.23;9.33;;;;;;;10.64;92.60;101844.91;4982032;28;20214;-67
2023/09/26 03:03:17;;;;;;;12.40;9.00;;;;;;;10.64;92.48;101850.97;4992501;28;20201;-69
2023/09/26 03:05:49;;;;;;;11.10;9.07;;;;;;;10.63;92.49;101843.34;4966263;28;20222;-69
2023/09/26 03:08:16;;;;;;;11.47;9.60;;;;;;;10.63;92.48;101836.22;4975486;28;22104;-69
2023/09/26 03:10:43;;;;;;;11.63;9.27;;;;;;;10.61;92.24;101838.34;4964658;28;20311;-69
2023/09/26 03:13:09;;;;;;;10.47;8.53;;;;;;;10.61;92.53;101841.00;4990727;28;20215;-69
2023/09/26 03:15:36;;;;;;;12.00;8.80;;;;;;;10.59;91.52;101835.22;4978131;28;20306;-69
2023/09/26 03:18:02;;;;;;;9.47;8.43;;;;;;;10.61;91.78;101832.31;4960701;28;20240;-68
2023/09/26 03:20:29;;;;;;;10.50;9.40;;;;;;;10.61;91.90;101834.94;4957781;28;20213;-69
2023/09/26 03:22:55;;;;;;;12.57;9.27;;;;;;;10.60;92.74;101831.50;4961032;28;20216;-69
2023/09/26 03:25:23;;;;;;;10.37;9.27;;;;;;;10.58;91.83;101836.31;4982005;28;20224;-68
2023/09/26 03:27:51;;;;;;;9.43;8.43;;;;;;;10.60;92.21;101830.72;4994144;28;20231;-69
2023/09/26 03:30:19;;;;;;;10.60;8.73;;;;;;;10.58;92.02;101820.47;4983698;28;20209;-69
2023/09/26 03:32:45;;;;;;;11.40;9.10;;;;;;;10.58;92.42;101828.38;4969980;28;20201;-69
2023/09/26 03:35:11;;;;;;;9.77;8.27;;;;;;;10.59;91.79;101819.38;4999288;28;20223;-69
2023/09/26 03:37:39;;;;;;;11.13;8.20;;;;;;;10.60;92.37;101825.44;4966839;28;20222;-68
2023/09/26 03:40:06;;;;;;;12.47;9.37;;;;;;;10.58;92.80;101814.38;4978072;28;20637;-69
2023/09/26 03:42:33;;;;;;;10.27;9.17;;;;;;;10.55;91.75;101814.97;4985841;28;20695;-68
2023/09/26 03:45:00;;;;;;;11.10;8.70;;;;;;;10.55;92.57;101815.75;4986721;28;20200;-69
2023/09/26 03:47:26;;;;;;;12.10;9.40;;;;;;;10.57;92.17;101812.81;4985355;28;20229;-68
2023/09/26 03:49:53;;;;;;;8.83;7.83;;;;;;;10.57;91.77;101810.19;4985789;28;20222;-68
2023/09/26 03:52:19;;;;;;;9.23;8.10;;;;;;;10.57;92.82;101815.47;4986511;28;20231;-69
2023/09/26 03:54:46;;;;;;;13.10;9.03;;;;;;;10.57;92.09;101810.19;4985308;28;20619;-68
2023/09/26 03:57:12;;;;;;;9.03;7.73;;;;;;;10.57;92.15;101808.31;4983426;28;20574;-68
2023/09/26 03:59:39;;;;;;;10.63;9.17;;;;;;;10.57;93.02;101818.88;4981371;28;20213;-68
2023/09/26 04:02:06;;;;;;;10.47;8.37;;;;;;;10.57;92.64;101812.81;4980990;28;20215;-69
2023/09/26 04:04:32;;;;;;;10.37;8.80;;;;;;;10.55;92.40;101807.84;4985038;28;20240;-68
2023/09/26 04:06:58;;;;;;;11.00;8.93;;;;;;;10.56;92.86;101813.91;4984805;28;20225;-68
2023/09/26 04:09:25;;;;;;;10.80;9.30;;;;;;;10.58;92.24;101803.81;4985472;28;20670;-69
2023/09/26 04:11:51;;;;;;;10.43;8.53;;;;;;;10.56;92.89;101806.75;4984060;28;20544;-68
2023/09/26 04:14:17;;;;;;;10.33;8.93;;;;;;;10.57;92.75;101799.63;4982266;28;20204;-69
2023/09/26 04:16:45;;;;;;;12.33;9.20;;;;;;;10.57;92.53;101810.19;4985389;28;20239;-68
2023/09/26 04:19:12;;;;;;;10.57;9.17;;;;;;;10.57;92.32;101804.91;4982447;28;20747;-69
2023/09/26 04:21:38;;;;;;;10.27;8.97;;;;;;;10.58;93.29;101803.81;4983337;28;20216;-68
2023/09/26 04:24:05;;;;;;;11.00;9.40;;;;;;;10.55;93.04;101805.19;4983476;28;20228;-69
2023/09/26 04:26:31;;;;;;;8.97;8.07;;;;;;;10.55;92.73;101802.56;4984171;28;20234;-69
2023/09/26 04:28:58;;;;;;;10.20;8.93;;;;;;;10.56;93.07;101806.00;4982514;28;20215;-69
2023/09/26 04:31:24;;;;;;;10.37;9.00;;;;;;;10.53;92.32;101802.06;4982945;28;20272;-68
2023/09/26 04:33:52;;;;;;;11.17;9.27;;;;;;;10.52;92.93;101811.09;4983723;28;20209;-69
2023/09/26 04:36:19;;;;;;;11.87;8.57;;;;;;;10.53;92.29;101806.56;4984664;28;20229;-68
2023/09/26 04:38:46;;;;;;;10.20;8.73;;;;;;;10.52;92.22;101802.38;4984854;28;20219;-69
2023/09/26 04:41:13;;;;;;;11.40;9.43;;;;;;;10.52;92.73;101805.81;4977508;28;20221;-69
2023/09/26 04:43:39;;;;;;;11.53;8.67;;;;;;;10.54;93.20;101810.75;4974945;28;20213;-69
2023/09/26 04:46:11;;;;;;;10.53;7.60;;;;;;;10.55;93.89;101802.56;4980758;28;20220;-69
2023/09/26 04:48:37;;;;;;;10.03;8.90;;;;;;;10.56;93.40;101803.34;4982997;28;20266;-69
2023/09/26 04:51:08;;;;;;;11.67;9.07;;;;;;;10.60;93.50;101799.81;4983984;28;20205;-69
2023/09/26 04:53:34;;;;;;;13.33;9.47;;;;;;;10.62;93.88;101796.88;4981881;28;20299;-69
2023/09/26 04:56:01;;;;;;;9.90;8.30;;;;;;;10.64;93.29;101800.00;4981710;28;20221;-68
2023/09/26 04:58:29;;;;;;;9.47;8.00;;;;;;;10.64;93.23;101798.16;4984664;28;20232;-68
2023/09/26 05:00:55;;;;;;;10.63;8.73;;;;;;;10.64;92.94;101803.44;4980521;28;20203;-68
2023/09/26 05:03:21;;;;;;;10.77;9.13;;;;;;;10.65;92.84;101797.06;4980403;28;20235;-69
2023/09/26 05:05:48;;;;;;;10.50;9.33;;;;;;;10.66;93.96;101788.06;4982231;28;20214;-69
2023/09/26 05:08:15;;;;;;;14.73;9.73;;;;;;;10.67;93.03;101786.22;4979107;28;20255;-69
2023/09/26 05:10:42;;;;;;;11.30;9.77;;;;;;;10.69;93.77;101792.75;4974058;28;20216;-69
2023/09/26 05:13:08;;;;;;;13.33;9.70;;;;;;;10.72;93.20;101802.72;4978649;28;20623;-68
2023/09/26 05:15:36;;;;;;;16.53;10.50;;;;;;;10.75;93.07;101798.69;4973998;28;20228;-68
2023/09/26 05:18:04;;;;;;;11.07;9.87;;;;;;;10.77;92.83;101815.81;4980431;28;20224;-69
2023/09/26 05:20:31;;;;;;;11.47;8.93;;;;;;;10.80;93.88;101809.97;4977706;28;20226;-68
2023/09/26 05:23:00;;;;;;;12.93;9.77;;;;;;;10.83;94.39;101805.94;4982761;28;20766;-69
2023/09/26 05:25:28;;;;;;;12.87;9.70;;;;;;;10.85;94.07;101801.13;4984578;28;20212;-69
2023/09/26 05:27:54;;;;;;;16.47;9.53;;;;;;;10.88;93.33;101806.59;4985871;28;20256;-68
2023/09/26 05:30:21;;;;;;;12.83;10.90;;;;;;;10.92;94.08;101809.44;4979862;28;20252;-68
2023/09/26 05:32:47;;;;;;;13.30;10.43;;;;;;;10.95;94.29;101819.41;4975458;28;20700;-68
2023/09/26 05:35:13;;;;;;;19.17;10.83;;;;;;;11.00;93.58;101816.66;4986214;28;20225;-69
2023/09/26 05:37:40;;;;;;;17.77;11.67;;;;;;;11.05;94.04;101812.06;4984301;28;20234;-68
2023/09/26 05:40:09;;;;;;;13.37;10.83;;;;;;;11.09;93.31;101820.97;4989140;28;20224;-69
2023/09/26 05:42:37;;;;;;;20.87;11.77;;;;;;;11.13;92.94;101810.56;4988003;28;20209;-68
2023/09/26 05:45:05;;;;;;;14.03;11.23;;;;;;;11.17;91.98;101817.59;4984205;28;20642;-69
2023/09/26 05:47:31;;;;;;;19.17;11.73;;;;;;;11.23;92.12;101821.69;4985816;28;20228;-69
2023/09/26 05:49:58;;;;;;;15.27;11.23;;;;;;;11.28;91.87;101818.16;4986154;28;20255;-68
2023/09/26 05:52:24;;;;;;;14.20;11.37;;;;;;;11.34;92.72;101820.34;4986040;28;20565;-69
2023/09/26 05:54:50;;;;;;;17.07;11.43;;;;;;;11.41;93.06;101822.59;4989138;28;20291;-69
2023/09/26 05:57:17;;;;;;;15.10;12.07;;;;;;;11.45;92.21;101821.69;4979494;28;20961;-70
2023/09/26 05:59:44;;;;;;;15.57;12.13;;;;;;;11.51;93.07;101817.84;4987459;28;20209;-68
2023/09/26 06:02:13;;;;;;;15.90;10.80;;;;;;;11.58;93.19;101820.06;4981128;28;20225;-69
2023/09/26 06:04:41;;;;;;;15.20;11.73;;;;;;;11.65;93.39;101813.28;4987795;28;20259;-70
2023/09/26 06:07:07;;;;;;;16.00;12.17;;;;;;;11.71;93.38;101813.97;4987181;28;20388;-69
2023/09/26 06:09:33;;;;;;;17.47;12.97;;;;;;;11.78;93.25;101823.03;4985289;28;20742;-69
2023/09/26 06:11:59;;;;;;;20.00;14.63;;;;;;;11.84;92.46;101818.38;4982670;28;20209;-69
2023/09/26 06:14:26;;;;;;;21.70;15.13;;;;;;;11.91;92.82;101821.38;4986545;28;20212;-69
2023/09/26 06:16:54;;;;;;;18.90;13.77;;;;;;;11.99;92.88;101823.28;4987516;28;20655;-68
2023/09/26 06:19:20;;;;;;;19.50;14.30;;;;;;;12.08;92.15;101821.47;4985596;28;20478;-69
2023/09/26 06:21:46;;;;;;;21.63;15.10;;;;;;;12.17;92.77;101822.28;4984383;28;20216;-68
2023/09/26 06:24:12;;;;;;;21.97;14.63;;;;;;;12.24;93.14;101820.75;4986432;28;20631;-68
2023/09/26 06:26:39;;;;;;;19.57;14.90;;;;;;;12.31;92.18;101818.44;4983417;28;20238;-68
2023/09/26 06:29:05;;;;;;;21.80;14.70;;;;;;;12.41;93.01;101823.47;4981797;28;20215;-69
2023/09/26 06:31:31;;;;;;;22.30;15.30;;;;;;;12.48;92.59;101821.13;4986281;28;20223;-69
2023/09/26 06:34:00;;;;;;;20.70;14.90;;;;;;;12.58;92.92;101820.09;4987945;28;20206;-69
2023/09/26 06:36:30;;;;;;;18.87;14.67;;;;;;;12.65;92.48;101823.06;4985949;28;20228;-69
2023/09/26 06:38:56;;;;;;;20.37;14.30;;;;;;;12.73;92.64;101822.31;4983853;28;20263;-68
2023/09/26 06:41:23;;;;;;;19.27;14.40;;;;;;;12.80;92.63;101819.97;4987438;28;20201;-70
2023/09/26 06:43:49;;;;;;;20.07;14.23;;;;;;;12.87;91.46;101820.28;4988169;28;20263;-69
2023/09/26 06:46:15;;;;;;;18.93;14.70;;;;;;;12.96;92.09;101823.75;4982741;28;20576;-69
2023/09/26 06:48:42;;;;;;;17.83;13.87;;;;;;;13.04;92.20;101815.81;4988344;28;20207;-69
2023/09/26 06:51:11;;;;;;;16.97;13.37;;;;;;;13.12;91.80;101819.56;4966825;28;20208;-69
2023/09/26 06:53:38;;;;;;;18.20;13.07;;;;;;;13.19;91.63;101811.94;4987054;28;20204;-68
2023/09/26 06:56:06;;;;;;;18.53;13.43;;;;;;;13.26;91.05;101814.88;4982415;28;20239;-69
2023/09/26 06:58:33;;;;;;;19.93;13.90;;;;;;;13.32;91.19;101821.59;4986560;28;20219;-70
2023/09/26 07:01:00;;;;;;;20.30;14.33;;;;;;;13.41;91.73;101828.44;4984689;28;20204;-67
2023/09/26 07:03:28;;;;;;;20.00;15.00;;;;;;;13.47;91.08;101823.75;4983160;28;20204;-69
2023/09/26 07:05:54;;;;;;;18.40;13.67;;;;;;;13.55;91.25;101828.28;4987222;28;20493;-69
2023/09/26 07:08:22;;;;;;;18.43;13.90;;;;;;;13.61;90.95;101827.78;4982308;28;20223;-69
2023/09/26 07:10:49;;;;;;;21.87;13.60;;;;;;;13.71;91.02;101816.84;4984022;28;20282;-68
2023/09/26 07:13:16;;;;;;;20.80;14.03;;;;;;;13.81;90.69;101816.50;4983558;28;20214;-69
2023/09/26 07:15:43;;;;;;;18.73;14.33;;;;;;;13.89;90.63;101818.38;4984276;28;20227;-69
2023/09/26 07:18:11;;;;;;;22.50;14.40;;;;;;;14.00;90.95;101818.78;4982145;28;20230;-69
2023/09/26 07:20:38;;;;;;;17.73;14.80;;;;;;;14.08;90.96;101818.00;4982781;28;20228;-69
2023/09/26 07:23:04;;;;;;;17.67;14.33;;;;;;;14.18;90.91;101809.66;4981307;28;20559;-69
2023/09/26 07:25:32;;;;;;;18.23;13.87;;;;;;;14.26;90.87;101820.28;4987154;28;20203;-69
2023/09/26 07:27:59;;;;;;;18.23;13.17;;;;;;;14.36;91.23;101817.28;4975914;28;20244;-69
2023/09/26 07:30:25;;;;;;;16.80;13.67;;;;;;;14.47;90.63;101822.97;4978002;28;20332;-69
2023/09/26 07:32:51;;;;;;;23.67;13.77;;;;;;;14.56;90.72;101815.75;4985218;28;20216;-69
2023/09/26 07:35:18;;;;;;;21.50;13.30;;;;;;;14.67;90.74;101814.28;4986578;28;20541;-69
2023/09/26 07:37:44;;;;;;;17.03;13.30;;;;;;;14.77;89.75;101816.56;4983698;28;20268;-68
2023/09/26 07:40:11;;;;;;;16.70;13.20;;;;;;;14.89;89.98;101814.75;4986115;28;20295;-69
2023/09/26 07:42:39;;;;;;;15.13;12.60;;;;;;;15.02;90.13;101816.38;4984477;28;20192;-69
2023/09/26 07:45:07;;;;;;;16.93;12.67;;;;;;;15.15;89.28;101811.88;4985307;28;20622;-69
2023/09/26 07:47:33;;;;;;;14.07;11.37;;;;;;;15.26;89.71;101808.50;4986855;28;20227;-68
2023/09/26 07:49:59;;;;;;;14.90;11.53;;;;;;;15.39;89.67;101814.69;4986112;28;20198;-69
2023/09/26 07:52:26;;;;;;;14.37;11.37;;;;;;;15.51;89.61;101820.81;4969660;28;20562;-69
2023/09/26 07:54:53;;;;;;;15.47;10.73;;;;;;;15.65;89.40;101820.53;4985217;28;20643;-68
2023/09/26 07:57:20;;;;;;;13.63;11.03;;;;;;;15.76;88.71;101821.66;4983307;28;20306;-69
2023/09/26 07:59:47;;;;;;;15.37;10.90;;;;;;;15.88;88.75;101822.47;4984300;28;20211;-69
2023/09/26 08:02:14;;;;;;;11.57;9.70;;;;;;;16.02;88.68;101820.28;4986906;28;20570;-69
2023/09/26 08:04:40;;;;;;;15.00;10.23;;;;;;;16.18;88.82;101823.84;4986732;28;20215;-69
2023/09/26 08:07:06;;;;;;;15.37;10.37;;;;;;;16.27;88.16;101818.41;4984623;28;20221;-68
2023/09/26 08:09:33;;;;;;;13.93;10.30;;;;;;;16.40;88.10;101823.44;4982916;28;20201;-69
2023/09/26 08:11:59;;;;;;;11.27;9.90;;;;;;;16.53;87.60;101816.19;4985311;28;20204;-69
2023/09/26 08:14:25;;;;;;;14.07;9.97;;;;;;;16.65;87.49;101818.84;4984895;28;20627;-69
2023/09/26 08:16:53;;;;;;;12.33;9.27;;;;;;;16.75;86.99;101816.50;4987740;28;20247;-69
2023/09/26 08:19:20;;;;;;;12.27;9.20;;;;;;;16.86;87.11;101814.91;4988949;28;20574;-68
2023/09/26 08:21:46;;;;;;;12.27;9.33;;;;;;;16.97;86.39;101816.00;4988397;28;20278;-69
2023/09/26 08:24:12;;;;;;;11.17;8.50;;;;;;;17.10;86.62;101814.88;4987140;28;20204;-69
2023/09/26 08:26:39;;;;;;;11.40;9.93;;;;;;;17.22;85.07;101816.69;4989756;28;20453;-69
2023/09/26 08:29:05;;;;;;;10.67;9.10;;;;;;;17.36;85.20;101817.09;4986103;28;20213;-69
2023/09/26 08:31:32;;;;;;;12.47;8.63;;;;;;;17.52;84.67;101823.28;4987642;28;20212;-69
2023/09/26 08:34:00;;;;;;;10.63;8.47;;;;;;;17.67;84.46;101814.50;4989703;28;20671;-69
2023/09/26 08:36:26;;;;;;;10.20;8.30;;;;;;;17.79;84.19;101820.56;4984660;28;20226;-69
2023/09/26 08:38:52;;;;;;;11.20;8.00;;;;;;;17.91;84.09;101817.03;4988443;28;20213;-69
2023/09/26 08:41:20;;;;;;;8.83;7.87;;;;;;;18.05;83.42;101820.84;4985155;28;20209;-69
2023/09/26 08:43:47;;;;;;;11.73;7.63;;;;;;;18.14;83.32;101815.31;4987649;28;20624;-69
2023/09/26 08:46:14;;;;;;;8.97;8.00;;;;;;;18.23;82.14;101822.03;4985383;28;20214;-69
2023/09/26 08:48:40;;;;;;;13.50;7.67;;;;;;;18.35;82.03;101829.19;4985751;28;20214;-69
2023/09/26 08:51:08;;;;;;;9.53;7.03;;;;;;;18.46;82.22;101822.19;4984119;28;20213;-69
2023/09/26 08:53:34;;;;;;;9.53;7.60;;;;;;;18.53;82.12;101823.13;4987035;28;20203;-69
2023/09/26 08:56:01;;;;;;;12.47;8.77;;;;;;;18.68;81.08;101819.66;4986999;28;20239;-69
2023/09/26 08:58:28;;;;;;;9.93;7.87;;;;;;;18.82;80.33;101819.16;4981542;28;20232;-69
2023/09/26 09:00:56;;;;;;;13.33;8.63;;;;;;;18.90;79.31;101816.31;4984551;28;20555;-69
2023/09/26 09:03:22;;;;;;;11.10;8.37;;;;;;;19.04;79.67;101807.78;4987009;28;20225;-69
2023/09/26 09:05:49;;;;;;;10.53;8.90;;;;;;;19.15;78.90;101806.09;5001230;28;20216;-69
2023/09/26 09:08:20;;;;;;;12.23;8.83;;;;;;;19.25;78.75;101800.97;4967392;28;20247;-69
2023/09/26 09:10:50;;;;;;;10.03;8.23;;;;;;;19.41;77.48;101798.22;4984595;28;20213;-69
2023/09/26 09:13:27;;;;;;;15.20;9.33;;;;;;;19.50;77.77;101790.72;5007965;23;20211;-74
2023/09/26 09:16:07;;;;;;;12.67;9.37;;;;;;;19.64;76.70;101785.59;5049539;28;20199;-73
2023/09/26 09:18:33;;;;;;;9.67;7.83;;;;;;;19.74;77.23;101787.69;5044102;28;20247;-74
2023/09/26 09:21:00;;;;;;;9.17;7.70;;;;;;;19.87;75.29;101791.75;5027189;28;20254;-74
2023/09/26 09:23:27;;;;;;;11.83;8.47;;;;;;;19.94;76.41;101787.28;5024304;28;20223;-73
2023/09/26 09:25:54;;;;;;;12.10;7.97;;;;;;;20.05;72.20;101782.84;5013690;28;20199;-74
2023/09/26 09:28:21;;;;;;;9.27;8.23;;;;;;;20.12;74.24;101777.63;5024884;28;20200;-74
2023/09/26 09:30:51;;;;;;;11.67;7.43;;;;;;;20.22;75.48;101777.00;5030545;28;20196;-74
2023/09/26 09:33:17;;;;;;;9.80;8.60;;;;;;;20.30;75.65;101772.50;5024971;28;20255;-73
2023/09/26 09:35:44;;;;;;;9.70;8.03;;;;;;;20.38;74.09;101766.88;5024233;28;20613;-74
2023/09/26 09:38:12;;;;;;;10.27;7.80;;;;;;;20.48;72.71;101766.25;5028548;28;20232;-74
2023/09/26 09:40:40;;;;;;;12.10;7.83;;;;;;;20.55;72.32;101765.59;5031043;28;20224;-74
2023/09/26 09:43:06;;;;;;;8.90;6.80;;;;;;;20.64;73.83;101758.78;5026437;28;20286;-74
2023/09/26 09:45:35;;;;;;;8.47;6.77;;;;;;;20.74;72.43;101754.72;5033102;28;20203;-71
2023/09/26 09:48:01;;;;;;;9.70;7.43;;;;;;;20.84;72.86;101754.03;5026250;28;20192;-73
2023/09/26 09:50:29;;;;;;;13.60;7.30;;;;;;;20.94;71.50;101750.75;5028322;28;20227;-74
2023/09/26 09:53:01;;;;;;;10.63;6.53;;;;;;;21.03;71.55;101757.38;5031840;28;20207;-74
2023/09/26 09:55:32;;;;;;;10.77;7.13;;;;;;;21.13;70.28;101751.34;5029302;28;20199;-74
2023/09/26 09:58:02;;;;;;;8.77;6.77;;;;;;;21.22;71.20;101751.81;5027568;28;20218;-74
2023/09/26 10:00:31;;;;;;;10.30;6.87;;;;;;;21.30;69.21;101739.22;5027708;28;20215;-74
2023/09/26 10:03:00;;;;;;;9.57;6.77;;;;;;;21.40;70.80;101736.66;5031576;28;20744;-74
2023/09/26 10:05:30;;;;;;;9.37;6.23;;;;;;;21.50;70.28;101735.97;5029587;28;20527;-74
2023/09/26 10:07:58;;;;;;;8.23;6.40;;;;;;;21.56;70.09;101734.50;5029218;28;20278;-74
2023/09/26 10:10:25;;;;;;;10.10;6.70;;;;;;;21.67;69.55;101721.91;5025362;28;20216;-74
2023/09/26 10:12:53;;;;;;;10.77;6.20;;;;;;;21.75;70.45;101734.31;5029828;28;20196;-73
2023/09/26 10:15:22;;;;;;;6.70;5.33;;;;;;;21.84;67.46;101731.28;5028899;28;20208;-74
2023/09/26 10:17:49;;;;;;;7.77;4.70;;;;;;;21.90;68.31;101727.88;5029879;28;20207;-74
2023/09/26 10:20:16;;;;;;;5.63;4.63;;;;;;;21.99;65.11;101724.88;5027044;28;20515;-74
2023/09/26 10:22:44;;;;;;;6.17;4.70;;;;;;;22.08;67.49;101726.06;5025097;28;20200;-74
2023/09/26 10:25:18;;;;;;;5.17;4.63;;;;;;;22.17;67.54;101726.50;5008702;28;20619;-74
2023/09/26 10:27:47;;;;;;;7.00;4.83;;;;;;;22.26;63.75;101723.47;5030874;28;20562;-74
2023/09/26 10:30:14;;;;;;;6.43;4.77;;;;;;;22.33;66.16;101726.97;5028882;28;20254;-74
2023/09/26 10:32:44;;;;;;;6.07;4.40;;;;;;;22.41;65.17;101725.09;5028530;28;20275;-74
2023/09/26 10:35:29;;;;;;;6.40;4.57;;;;;;;22.48;67.20;101719.78;5025405;28;20203;-73
2023/09/26 10:38:10;;;;;;;6.43;4.30;;;;;;;22.57;65.67;101720.19;5026729;28;20231;-74
2023/09/26 10:40:36;;;;;;;6.47;4.40;;;;;;;22.65;63.41;101713.69;5029350;28;20298;-74
2023/09/26 10:43:03;;;;;;;5.95;4.20;;;;;;;22.71;63.45;101709.50;5027776;28;20196;-74
2023/09/26 10:45:29;;;;;;;7.10;3.97;;;;;;;22.80;65.12;101713.38;5026105;28;20204;-74
2023/09/26 10:47:57;;;;;;;10.70;4.53;;;;;;;22.86;64.04;101714.53;5029347;28;20287;-74
2023/09/26 10:50:24;;;;;;;6.50;4.20;;;;;;;22.94;62.85;101715.31;5030895;28;20224;-74
2023/09/26 10:52:51;;;;;;;4.35;3.95;;;;;;;23.01;61.29;101699.16;5031124;28;20207;-74
2023/09/26 10:55:19;;;;;;;6.68;4.20;;;;;;;23.08;60.56;101699.19;5027330;28;20206;-74
2023/09/26 10:57:45;;;;;;;6.88;3.80;;;;;;;23.13;61.82;101698.81;5024171;28;20310;-73
2023/09/26 11:00:14;;;;;;;5.28;4.20;;;;;;;23.15;62.25;101691.09;5025571;28;20222;-75
2023/09/26 11:02:42;;;;;;;4.57;3.65;;;;;;;23.22;62.87;101695.78;5029008;28;20202;-72
2023/09/26 11:05:12;;;;;;;8.57;3.75;;;;;;;23.29;59.71;101688.47;5026512;28;20704;-72
2023/09/26 11:07:39;;;;;;;4.57;3.65;;;;;;;23.35;60.70;101686.91;5026050;28;20219;-73
2023/09/26 11:10:11;;;;;;;5.57;4.05;;;;;;;23.39;60.76;101677.66;5029243;28;20232;-74
2023/09/26 11:12:38;;;;;;;5.32;3.85;;;;;;;23.44;61.66;101684.63;5022256;28;20666;-74
2023/09/26 11:15:05;;;;;;;6.05;3.80;;;;;;;23.50;60.60;101685.78;5025716;28;20221;-72
2023/09/26 11:17:32;;;;;;;5.20;3.80;;;;;;;23.55;60.04;101675.34;5024992;28;20215;-73